createdAt,value
2018-03-30T00:00:31.778Z,97706.84
2018-03-30T00:02:09.373Z,97677.24
2018-03-30T00:03:46.965Z,97672.45
2018-03-30T00:05:25.850Z,97669.84
2018-03-30T00:07:09.496Z,97673.80
2018-03-30T00:08:47.476Z,97692.88
2018-03-30T00:10:25.101Z,97735.55
2018-03-30T00:12:02.890Z,97736.87
2018-03-30T00:13:41.311Z,97740.75
2018-03-30T00:15:22.239Z,97742.07
2018-03-30T00:17:01.411Z,97753.37
2018-03-30T00:18:39.125Z,97745.55
2018-03-30T00:20:16.427Z,97722.48
2018-03-30T00:21:53.929Z,97683.30
2018-03-30T00:23:32.227Z,97705.06
2018-03-30T00:25:09.914Z,97704.63
2018-03-30T00:26:47.540Z,97692.05
2018-03-30T00:28:25.767Z,97685.50
2018-03-30T00:30:03.694Z,97682.00
2018-03-30T00:31:41.706Z,97692.42
2018-03-30T00:33:19.483Z,97718.09
2018-03-30T00:34:57.608Z,97731.55
2018-03-30T00:36:35.813Z,97755.53
2018-03-30T00:38:14.095Z,97752.95
2018-03-30T00:39:51.934Z,97750.30
2018-03-30T00:41:29.813Z,97754.27
2018-03-30T00:43:07.547Z,97749.45
2018-03-30T00:44:46.244Z,97755.94
2018-03-30T00:46:24.984Z,97765.55
2018-03-30T00:48:03.136Z,97762.53
2018-03-30T00:49:40.643Z,97759.43
2018-03-30T00:51:17.969Z,97775.56
2018-03-30T00:52:55.773Z,97789.08
2018-03-30T00:54:33.068Z,97785.60
2018-03-30T00:56:10.578Z,97810.83
2018-03-30T00:57:49.103Z,97823.43
2018-03-30T00:59:27.479Z,97832.56
2018-03-30T01:01:06.753Z,97837.39
2018-03-30T01:02:45.724Z,97839.51
2018-03-30T01:04:23.881Z,97843.87
2018-03-30T01:06:02.282Z,97840.45
2018-03-30T01:07:39.613Z,97833.02
2018-03-30T01:09:17.078Z,97835.12
2018-03-30T01:10:55.185Z,97834.31
2018-03-30T01:12:34.006Z,97830.81
2018-03-30T01:14:11.667Z,97829.49
2018-03-30T01:15:49.832Z,97825.59
2018-03-30T01:17:26.952Z,97835.58
2018-03-30T01:19:04.063Z,97834.23
2018-03-30T01:20:41.128Z,97855.23
2018-03-30T01:22:20.218Z,97855.64
2018-03-30T01:23:58.158Z,97863.45
2018-03-30T01:25:35.934Z,97887.42
2018-03-30T01:27:13.706Z,97900.09
2018-03-30T01:28:51.277Z,97877.48
2018-03-30T01:30:30.991Z,97906.21
2018-03-30T01:32:09.919Z,97910.66
2018-03-30T01:33:47.682Z,97902.28
2018-03-30T01:35:25.286Z,97922.30
2018-03-30T01:37:04.442Z,97900.12
2018-03-30T01:38:42.163Z,97870.86
2018-03-30T01:40:19.712Z,97856.53
2018-03-30T01:41:58.374Z,97840.38
2018-03-30T01:43:36.608Z,97836.95
2018-03-30T01:45:16.607Z,97867.87
2018-03-30T01:46:55.259Z,97881.38
2018-03-30T01:48:33.055Z,97883.98
2018-03-30T01:50:10.849Z,97901.44
2018-03-30T01:51:48.740Z,97903.59
2018-03-30T01:53:26.334Z,97868.27
2018-03-30T01:55:04.510Z,97850.02
2018-03-30T01:56:44.651Z,97810.38
2018-03-30T01:58:23.228Z,97816.45
2018-03-30T02:00:01.049Z,97807.41
2018-03-30T02:01:39.482Z,97826.09
2018-03-30T02:03:18.640Z,97817.34
2018-03-30T02:04:58.177Z,97798.20
2018-03-30T02:06:35.885Z,97781.23
2018-03-30T02:08:14.397Z,97782.98
2018-03-30T02:09:52.497Z,97797.40
2018-03-30T02:11:30.171Z,97796.02
2018-03-30T02:13:07.815Z,97816.45
2018-03-30T02:14:45.418Z,97806.49
2018-03-30T02:16:23.962Z,97810.83
2018-03-30T02:18:01.374Z,97811.29
2018-03-30T02:19:39.919Z,97812.61
2018-03-30T02:21:17.770Z,97811.29
2018-03-30T02:22:55.317Z,97811.29
2018-03-30T02:24:33.040Z,97811.29
2018-03-30T02:26:09.936Z,97796.02
2018-03-30T02:27:46.828Z,97802.56
2018-03-30T02:29:25.282Z,97807.33
2018-03-30T02:31:02.630Z,97779.46
2018-03-30T02:32:39.527Z,97779.92
2018-03-30T02:34:16.828Z,97766.89
2018-03-30T02:35:54.007Z,97762.05
2018-03-30T02:37:31.781Z,97764.25
2018-03-30T02:39:10.087Z,97765.57
2018-03-30T02:40:47.652Z,97775.13
2018-03-30T02:42:25.672Z,97780.84
2018-03-30T02:44:03.064Z,97780.38
2018-03-30T02:45:40.321Z,97786.48
2018-03-30T02:47:18.096Z,97769.05
2018-03-30T02:48:55.720Z,97765.57
2018-03-30T02:50:32.994Z,97787.76
2018-03-30T02:52:10.543Z,97797.80
2018-03-30T02:53:49.085Z,97807.36
2018-03-30T02:55:27.295Z,97817.00
2018-03-30T02:57:04.028Z,97822.97
2018-03-30T02:58:42.089Z,97836.58
2018-03-30T03:00:25.020Z,97824.34
2018-03-30T03:02:02.417Z,97832.59
2018-03-30T03:03:39.609Z,97847.41
2018-03-30T03:05:16.746Z,97950.21
2018-03-30T03:06:54.541Z,98131.55
2018-03-30T03:08:31.506Z,98327.42
2018-03-30T03:10:08.529Z,98247.59
2018-03-30T03:11:45.814Z,98197.84
2018-03-30T03:13:22.840Z,98225.80
2018-03-30T03:14:59.304Z,98272.03
2018-03-30T03:16:36.438Z,98304.78
2018-03-30T03:18:13.556Z,98409.66
2018-03-30T03:19:51.091Z,98603.64
2018-03-30T03:21:27.919Z,98668.86
2018-03-30T03:23:04.865Z,98810.28
2018-03-30T03:24:42.266Z,98816.44
2018-03-30T03:26:19.529Z,98697.28
2018-03-30T03:27:56.850Z,98501.37
2018-03-30T03:29:33.445Z,98383.47
2018-03-30T03:31:10.942Z,98390.47
2018-03-30T03:32:48.441Z,98450.28
2018-03-30T03:34:25.227Z,98572.70
2018-03-30T03:36:02.291Z,98770.90
2018-03-30T03:37:39.183Z,98890.06
2018-03-30T03:39:16.622Z,98957.98
2018-03-30T03:40:53.548Z,98880.83
2018-03-30T03:42:30.667Z,98676.73
2018-03-30T03:44:08.424Z,98563.94
2018-03-30T03:45:45.544Z,98585.30
2018-03-30T03:47:22.551Z,98498.81
2018-03-30T03:48:59.582Z,98415.77
2018-03-30T03:50:37.474Z,98337.59
2018-03-30T03:52:14.672Z,98332.36
2018-03-30T03:53:51.812Z,98313.15
2018-03-30T03:55:28.765Z,98240.65
2018-03-30T03:57:05.568Z,98119.39
2018-03-30T03:58:42.442Z,98011.67
2018-03-30T04:00:21.452Z,97937.22
2018-03-30T04:01:58.646Z,97918.89
2018-03-30T04:03:35.910Z,97939.86
2018-03-30T04:05:13.393Z,97911.52
2018-03-30T04:06:50.064Z,97915.37
2018-03-30T04:08:28.217Z,97941.59
2018-03-30T04:10:05.565Z,97919.33
2018-03-30T04:11:44.065Z,97924.98
2018-03-30T04:13:21.662Z,97916.80
2018-03-30T04:14:58.371Z,97886.65
2018-03-30T04:16:36.077Z,97884.52
2018-03-30T04:18:12.761Z,97879.67
2018-03-30T04:19:49.140Z,97850.02
2018-03-30T04:21:28.904Z,97853.11
2018-03-30T04:23:05.755Z,97877.48
2018-03-30T04:24:44.286Z,97869.63
2018-03-30T04:26:22.713Z,97887.59
2018-03-30T04:27:59.842Z,97866.17
2018-03-30T04:29:36.821Z,97853.97
2018-03-30T04:31:13.775Z,97863.13
2018-03-30T04:32:53.412Z,97856.56
2018-03-30T04:34:30.575Z,97880.10
2018-03-30T04:36:07.680Z,97908.93
2018-03-30T04:37:45.409Z,97883.49
2018-03-30T04:39:22.193Z,97879.27
2018-03-30T04:40:59.520Z,97872.72
2018-03-30T04:42:38.639Z,97854.00
2018-03-30T04:44:16.753Z,97840.48
2018-03-30T04:45:54.407Z,97832.64
2018-03-30T04:47:32.009Z,97837.44
2018-03-30T04:49:09.352Z,97829.59
2018-03-30T04:50:47.000Z,97819.98
2018-03-30T04:52:23.953Z,97844.81
2018-03-30T04:55:31.716Z,97810.42
2018-03-30T04:57:08.735Z,97780.41
2018-03-30T04:58:46.144Z,97779.11
2018-03-30T05:00:26.568Z,97781.23
2018-03-30T05:02:03.052Z,97775.64
2018-03-30T05:03:40.184Z,97792.66
2018-03-30T05:05:18.314Z,97787.38
2018-03-30T05:06:55.849Z,97825.20
2018-03-30T05:08:32.749Z,97836.98
2018-03-30T05:10:09.584Z,97816.52
2018-03-30T05:11:46.228Z,97804.74
2018-03-30T05:13:23.595Z,97786.92
2018-03-30T05:15:00.646Z,97794.33
2018-03-30T05:16:37.735Z,97797.80
2018-03-30T05:18:14.863Z,97780.00
2018-03-30T05:19:53.377Z,97785.68
2018-03-30T05:21:30.215Z,97769.98
2018-03-30T05:23:07.525Z,97757.33
2018-03-30T05:24:44.690Z,97752.97
2018-03-30T05:26:21.596Z,97752.52
2018-03-30T05:27:58.358Z,97759.05
2018-03-30T05:29:35.701Z,97773.06
2018-03-30T05:31:13.458Z,97773.03
2018-03-30T05:32:50.930Z,97778.22
2018-03-30T05:34:28.011Z,97762.13
2018-03-30T05:36:05.657Z,97749.07
2018-03-30T05:37:43.584Z,97753.40
2018-03-30T05:39:20.963Z,97722.51
2018-03-30T05:40:58.216Z,97725.17
2018-03-30T05:42:36.296Z,97761.27
2018-03-30T05:44:14.227Z,97812.23
2018-03-30T05:45:51.398Z,97964.17
2018-03-30T05:47:28.945Z,97925.83
2018-03-30T05:49:06.393Z,97862.73
2018-03-30T05:50:43.469Z,97838.76
2018-03-30T05:52:21.435Z,97833.98
2018-03-30T05:53:59.347Z,97853.52
2018-03-30T05:55:36.774Z,97894.48
2018-03-30T05:57:14.083Z,97914.13
2018-03-30T05:58:51.764Z,97952.45
2018-03-30T06:00:30.586Z,97938.52
2018-03-30T06:02:08.145Z,97925.42
2018-03-30T06:03:46.660Z,97913.19
2018-03-30T06:05:24.330Z,97921.94
2018-03-30T06:07:01.419Z,97913.67
2018-03-30T06:08:38.868Z,97930.24
2018-03-30T06:10:16.154Z,97933.31
2018-03-30T06:11:54.120Z,97929.78
2018-03-30T06:13:31.583Z,97971.16
2018-03-30T06:15:09.429Z,97972.45
2018-03-30T06:16:46.605Z,97959.02
2018-03-30T06:18:23.699Z,97986.81
2018-03-30T06:20:00.467Z,98022.56
2018-03-30T06:21:37.466Z,98045.70
2018-03-30T06:23:15.236Z,98066.16
2018-03-30T06:24:53.228Z,98117.63
2018-03-30T06:26:31.618Z,98094.09
2018-03-30T06:28:08.709Z,98060.07
2018-03-30T06:29:47.187Z,98036.98
2018-03-30T06:31:24.923Z,98036.05
2018-03-30T06:33:03.962Z,98060.50
2018-03-30T06:34:42.088Z,98100.61
2018-03-30T06:36:19.880Z,98116.77
2018-03-30T06:37:58.733Z,98145.50
2018-03-30T06:39:36.440Z,98183.55
2018-03-30T06:41:15.109Z,98194.86
2018-03-30T06:42:53.204Z,98221.48
2018-03-30T06:44:32.237Z,98171.39
2018-03-30T06:46:10.100Z,98156.92
2018-03-30T06:47:47.825Z,98168.23
2018-03-30T06:49:25.233Z,98132.01
2018-03-30T06:51:02.795Z,98149.09
2018-03-30T06:52:41.327Z,98158.22
2018-03-30T06:54:18.864Z,98142.88
2018-03-30T06:55:56.750Z,98125.94
2018-03-30T06:57:34.350Z,98110.67
2018-03-30T06:59:13.118Z,98138.59
2018-03-30T07:00:50.794Z,98113.74
2018-03-30T07:02:29.672Z,98103.68
2018-03-30T07:04:07.335Z,98116.36
2018-03-30T07:05:45.693Z,98134.68
2018-03-30T07:07:24.729Z,98144.72
2018-03-30T07:09:03.776Z,98151.25
2018-03-30T07:10:41.150Z,98156.06
2018-03-30T07:12:19.991Z,98159.95
2018-03-30T07:13:58.117Z,98180.45
2018-03-30T07:15:36.633Z,98152.54
2018-03-30T07:17:14.580Z,98155.63
2018-03-30T07:18:52.952Z,98180.05
2018-03-30T07:20:30.955Z,98189.27
2018-03-30T07:22:08.720Z,98174.78
2018-03-30T07:23:46.180Z,98194.89
2018-03-30T07:25:23.880Z,98245.94
2018-03-30T07:27:02.456Z,98275.23
2018-03-30T07:28:39.968Z,98258.55
2018-03-30T07:30:20.236Z,98254.23
2018-03-30T07:31:58.420Z,98261.14
2018-03-30T07:33:36.943Z,98318.83
2018-03-30T07:35:14.715Z,98364.67
2018-03-30T07:36:53.051Z,98391.34
2018-03-30T07:38:30.724Z,98437.64
2018-03-30T07:40:08.748Z,98448.98
2018-03-30T07:41:46.496Z,98479.55
2018-03-30T07:43:25.560Z,98473.02
2018-03-30T07:45:02.951Z,98533.75
2018-03-30T07:46:41.453Z,98566.13
2018-03-30T07:48:19.440Z,98581.84
2018-03-30T07:49:57.097Z,98715.81
2018-03-30T07:51:35.582Z,98758.66
2018-03-30T07:53:13.285Z,98806.00
2018-03-30T07:54:51.155Z,98865.07
2018-03-30T07:56:28.741Z,98840.11
2018-03-30T07:58:06.974Z,98890.56
2018-03-30T07:59:44.393Z,98887.02
2018-03-30T08:01:23.982Z,98830.11
2018-03-30T08:03:02.073Z,98823.52
2018-03-30T08:04:40.008Z,98868.61
2018-03-30T08:06:17.387Z,98853.72
2018-03-30T08:07:55.239Z,98868.61
2018-03-30T08:09:34.039Z,98900.20
2018-03-30T08:11:12.665Z,98995.77
2018-03-30T08:12:50.034Z,99069.02
2018-03-30T08:14:27.318Z,99134.38
2018-03-30T08:16:05.587Z,99131.73
2018-03-30T08:17:44.531Z,99139.25
2018-03-30T08:19:21.750Z,99131.77
2018-03-30T08:20:59.500Z,99191.05
2018-03-30T08:22:37.110Z,99188.86
2018-03-30T08:24:15.027Z,99213.45
2018-03-30T08:25:54.540Z,99257.33
2018-03-30T08:27:33.028Z,99260.39
2018-03-30T08:29:11.525Z,99263.05
2018-03-30T08:30:50.855Z,99280.15
2018-03-30T08:32:28.031Z,99315.73
2018-03-30T08:34:05.236Z,99335.50
2018-03-30T08:35:44.217Z,99370.67
2018-03-30T08:37:23.237Z,99430.05
2018-03-30T08:39:00.336Z,99484.54
2018-03-30T08:40:38.241Z,99553.63
2018-03-30T08:42:16.065Z,99592.79
2018-03-30T08:43:53.229Z,99675.97
2018-03-30T08:45:31.326Z,99650.41
2018-03-30T08:47:09.880Z,99555.80
2018-03-30T08:48:47.292Z,99448.50
2018-03-30T08:50:25.363Z,99556.27
2018-03-30T08:52:03.900Z,99794.92
2018-03-30T08:53:41.817Z,99928.87
2018-03-30T08:55:19.445Z,99942.07
2018-03-30T08:56:57.244Z,100003.02
2018-03-30T08:58:34.995Z,100114.16
2018-03-30T09:00:12.505Z,99935.95
2018-03-30T09:01:50.368Z,99795.77
2018-03-30T09:03:27.961Z,99717.36
2018-03-30T09:05:05.139Z,99753.06
2018-03-30T09:06:42.566Z,99705.06
2018-03-30T09:08:19.671Z,99669.86
2018-03-30T09:09:58.077Z,99627.55
2018-03-30T09:11:35.526Z,99644.71
2018-03-30T09:13:13.095Z,99665.00
2018-03-30T09:14:51.464Z,99669.77
2018-03-30T09:16:29.345Z,99725.75
2018-03-30T09:18:06.641Z,99718.69
2018-03-30T09:19:44.729Z,99742.98
2018-03-30T09:21:24.047Z,99704.61
2018-03-30T09:23:01.885Z,99699.75
2018-03-30T09:24:39.556Z,99746.03
2018-03-30T09:26:16.702Z,99797.99
2018-03-30T09:27:54.063Z,99945.20
2018-03-30T09:29:31.426Z,99936.83
2018-03-30T09:31:10.881Z,99933.27
2018-03-30T09:32:48.205Z,99949.22
2018-03-30T09:34:25.907Z,100001.64
2018-03-30T09:36:04.011Z,99951.84
2018-03-30T09:37:42.654Z,99763.59
2018-03-30T09:39:20.564Z,99750.86
2018-03-30T09:40:58.035Z,99810.75
2018-03-30T09:42:35.511Z,99748.64
2018-03-30T09:44:13.861Z,99717.80
2018-03-30T09:45:51.587Z,99695.34
2018-03-30T09:47:29.220Z,99680.80
2018-03-30T09:49:06.954Z,99730.14
2018-03-30T09:50:44.411Z,99841.16
2018-03-30T09:52:22.704Z,99825.30
2018-03-30T09:54:02.313Z,99770.65
2018-03-30T09:55:39.727Z,99787.84
2018-03-30T09:57:18.136Z,99786.92
2018-03-30T09:58:55.539Z,99809.41
2018-03-30T10:00:34.236Z,99840.72
2018-03-30T10:02:11.686Z,99915.23
2018-03-30T10:03:49.569Z,99847.33
2018-03-30T10:05:28.002Z,99867.16
2018-03-30T10:07:06.018Z,99916.12
2018-03-30T10:08:43.335Z,99983.09
2018-03-30T10:10:21.621Z,99965.95
2018-03-30T10:11:58.743Z,100047.51
2018-03-30T10:13:36.692Z,100307.22
2018-03-30T10:15:15.645Z,100516.39
2018-03-30T10:16:53.493Z,100658.48
2018-03-30T10:18:30.993Z,100706.77
2018-03-30T10:20:08.485Z,100758.97
2018-03-30T10:21:45.555Z,100800.70
2018-03-30T10:23:23.054Z,100811.78
2018-03-30T10:25:00.420Z,100940.77
2018-03-30T10:26:38.535Z,101041.53
2018-03-30T10:28:16.657Z,101006.42
2018-03-30T10:29:53.913Z,100934.16
2018-03-30T10:31:32.867Z,100479.19
2018-03-30T10:33:12.912Z,100343.91
2018-03-30T10:34:51.700Z,100341.25
2018-03-30T10:36:32.486Z,100415.09
2018-03-30T10:38:12.644Z,100381.50
2018-03-30T10:39:51.279Z,100432.31
2018-03-30T10:41:28.809Z,100576.56
2018-03-30T10:43:06.410Z,100614.21
2018-03-30T10:44:44.582Z,100813.50
2018-03-30T10:46:23.135Z,100931.94
2018-03-30T10:48:00.488Z,100743.97
2018-03-30T10:49:38.218Z,100711.19
2018-03-30T10:51:17.398Z,100693.44
2018-03-30T10:52:56.147Z,100652.27
2018-03-30T10:54:36.649Z,100719.14
2018-03-30T10:56:15.235Z,100807.78
2018-03-30T10:57:54.749Z,100733.33
2018-03-30T10:59:33.966Z,100608.03
2018-03-30T11:01:13.432Z,100496.04
2018-03-30T11:02:51.805Z,100353.62
2018-03-30T11:04:31.541Z,100264.77
2018-03-30T11:06:13.266Z,100278.47
2018-03-30T11:07:53.357Z,100264.77
2018-03-30T11:09:30.954Z,100270.07
2018-03-30T11:11:13.451Z,100274.02
2018-03-30T11:12:52.892Z,100339.44
2018-03-30T11:14:30.449Z,100433.16
2018-03-30T11:16:08.813Z,100456.61
2018-03-30T11:17:48.685Z,100412.38
2018-03-30T11:19:27.915Z,100586.75
2018-03-30T11:21:07.613Z,100684.54
2018-03-30T11:22:46.272Z,100702.72
2018-03-30T11:24:28.269Z,100571.22
2018-03-30T11:26:11.786Z,100462.80
2018-03-30T11:27:49.891Z,100406.16
2018-03-30T11:29:31.679Z,100526.95
2018-03-30T11:31:12.915Z,100453.48
2018-03-30T11:32:54.781Z,100436.23
2018-03-30T11:34:34.716Z,100418.52
2018-03-30T11:36:18.761Z,100436.69
2018-03-30T11:38:00.876Z,100465.00
2018-03-30T11:39:40.424Z,100465.00
2018-03-30T11:41:20.797Z,100479.61
2018-03-30T11:43:05.611Z,100572.97
2018-03-30T11:44:46.026Z,100653.57
2018-03-30T11:46:26.780Z,100665.05
2018-03-30T11:48:09.759Z,100658.40
2018-03-30T11:49:48.486Z,100607.00
2018-03-30T11:51:27.853Z,100611.45
2018-03-30T11:53:07.101Z,100640.23
2018-03-30T11:54:45.259Z,100711.10
2018-03-30T11:56:23.979Z,100728.80
2018-03-30T11:58:04.687Z,100620.77
2018-03-30T11:59:44.798Z,100584.45
2018-03-30T12:01:26.111Z,100584.00
2018-03-30T12:03:05.309Z,100644.22
2018-03-30T12:04:44.346Z,100684.06
2018-03-30T12:06:25.982Z,100683.61
2018-03-30T12:08:05.527Z,100702.20
2018-03-30T12:09:43.960Z,100887.43
2018-03-30T12:11:24.652Z,100895.88
2018-03-30T12:13:05.597Z,100780.61
2018-03-30T12:14:44.573Z,100703.08
2018-03-30T12:16:24.906Z,100715.48
2018-03-30T12:18:03.212Z,100725.23
2018-03-30T12:19:41.743Z,100667.69
2018-03-30T12:21:19.538Z,100711.06
2018-03-30T12:22:57.659Z,100751.80
2018-03-30T12:24:43.315Z,100674.72
2018-03-30T12:26:22.869Z,100699.52
2018-03-30T12:28:01.067Z,100730.97
2018-03-30T12:29:40.223Z,100745.13
2018-03-30T12:31:20.100Z,100698.17
2018-03-30T12:32:59.457Z,100619.84
2018-03-30T12:34:38.917Z,100566.25
2018-03-30T12:36:18.507Z,100601.20
2018-03-30T12:37:56.456Z,100618.88
2018-03-30T12:39:34.498Z,100658.34
2018-03-30T12:41:12.712Z,100645.92
2018-03-30T12:42:50.722Z,100705.27
2018-03-30T12:44:31.393Z,100731.80
2018-03-30T12:46:15.037Z,100741.99
2018-03-30T12:47:54.917Z,100847.08
2018-03-30T12:49:35.081Z,100751.31
2018-03-30T12:51:14.922Z,100804.91
2018-03-30T12:52:54.294Z,100819.11
2018-03-30T12:54:32.338Z,100755.70
2018-03-30T12:57:05.896Z,100672.46
2018-03-30T12:59:33.349Z,100633.50
2018-03-30T13:01:15.822Z,100676.00
2018-03-30T13:02:53.356Z,100804.44
2018-03-30T13:04:31.230Z,100895.77
2018-03-30T13:06:09.237Z,101071.49
2018-03-30T13:07:48.806Z,101218.51
2018-03-30T13:09:26.654Z,101389.63
2018-03-30T13:11:04.371Z,101365.16
2018-03-30T13:12:42.244Z,101176.30
2018-03-30T13:14:20.404Z,101022.67
2018-03-30T13:15:58.774Z,101077.27
2018-03-30T13:17:36.744Z,101041.31
2018-03-30T13:19:14.662Z,101077.72
2018-03-30T13:20:52.995Z,101236.70
2018-03-30T13:22:33.153Z,101118.53
2018-03-30T13:24:13.020Z,100861.18
2018-03-30T13:25:51.526Z,100814.57
2018-03-30T13:27:36.745Z,100750.78
2018-03-30T13:29:15.461Z,100790.25
2018-03-30T13:30:54.880Z,100906.78
2018-03-30T13:32:34.965Z,101046.61
2018-03-30T13:34:13.757Z,101059.90
2018-03-30T13:35:53.298Z,100870.87
2018-03-30T13:37:35.240Z,100833.67
2018-03-30T13:39:15.617Z,100826.55
2018-03-30T13:40:56.691Z,100796.84
2018-03-30T13:42:38.989Z,100721.48
2018-03-30T13:44:16.993Z,100711.34
2018-03-30T13:45:57.282Z,100705.58
2018-03-30T13:47:37.608Z,100638.26
2018-03-30T13:49:14.729Z,100687.38
2018-03-30T13:50:54.103Z,100812.78
2018-03-30T13:52:33.401Z,100827.82
2018-03-30T13:54:11.266Z,100777.71
2018-03-30T13:55:49.307Z,100743.19
2018-03-30T13:57:28.974Z,100845.57
2018-03-30T13:59:09.218Z,100991.53
2018-03-30T14:00:49.157Z,100973.30
2018-03-30T14:02:29.743Z,100905.84
2018-03-30T14:04:08.479Z,100753.78
2018-03-30T14:05:48.231Z,100651.08
2018-03-30T14:07:29.146Z,100660.34
2018-03-30T14:09:09.955Z,100695.33
2018-03-30T14:10:48.298Z,100839.78
2018-03-30T14:12:26.474Z,100943.97
2018-03-30T14:14:04.358Z,100990.13
2018-03-30T14:15:42.652Z,100942.20
2018-03-30T14:17:20.611Z,100943.97
2018-03-30T14:19:00.260Z,100925.77
2018-03-30T14:20:39.164Z,100921.77
2018-03-30T14:22:20.567Z,101134.38
2018-03-30T14:23:59.310Z,101329.45
2018-03-30T14:25:37.124Z,101085.97
2018-03-30T14:27:14.915Z,100898.70
2018-03-30T14:28:53.281Z,100814.88
2018-03-30T14:30:31.662Z,100798.97
2018-03-30T14:32:09.419Z,100757.29
2018-03-30T14:33:47.355Z,100734.67
2018-03-30T14:35:25.810Z,100718.27
2018-03-30T14:37:04.218Z,100699.67
2018-03-30T14:38:43.060Z,100716.94
2018-03-30T14:40:21.852Z,100741.30
2018-03-30T14:41:59.371Z,100724.03
2018-03-30T14:43:37.685Z,100735.51
2018-03-30T14:45:18.959Z,100748.83
2018-03-30T14:46:58.454Z,100922.11
2018-03-30T14:48:36.112Z,101010.92
2018-03-30T14:50:14.638Z,100950.09
2018-03-30T14:51:52.410Z,100881.34
2018-03-30T14:53:31.075Z,100745.27
2018-03-30T14:55:08.639Z,100630.11
2018-03-30T14:56:46.337Z,100579.63
2018-03-30T14:58:24.292Z,100578.30
2018-03-30T15:00:02.285Z,100526.48
2018-03-30T15:01:40.459Z,100540.65
2018-03-30T15:03:18.766Z,100515.42
2018-03-30T15:05:15.442Z,100544.61
2018-03-30T15:06:54.386Z,100672.14
2018-03-30T15:08:32.595Z,100661.06
2018-03-30T15:10:09.968Z,100630.05
2018-03-30T15:11:47.418Z,100743.91
2018-03-30T15:13:25.428Z,100824.97
2018-03-30T15:15:03.247Z,100771.33
2018-03-30T15:16:42.246Z,100702.23
2018-03-30T15:18:19.997Z,100654.38
2018-03-30T15:19:57.340Z,100609.68
2018-03-30T15:21:35.634Z,100580.88
2018-03-30T15:23:13.426Z,100540.14
2018-03-30T15:24:51.528Z,100472.91
2018-03-30T15:26:29.739Z,100453.87
2018-03-30T15:28:07.277Z,100441.01
2018-03-30T15:29:46.071Z,100455.15
2018-03-30T15:31:26.151Z,100507.38
2018-03-30T15:33:04.410Z,100484.36
2018-03-30T15:34:42.267Z,100482.15
2018-03-30T15:36:20.441Z,100500.26
2018-03-30T15:37:58.671Z,100522.84
2018-03-30T15:39:36.967Z,100457.35
2018-03-30T15:41:15.233Z,100449.86
2018-03-30T15:42:52.809Z,100469.28
2018-03-30T15:44:32.655Z,100444.91
2018-03-30T15:46:10.508Z,100459.99
2018-03-30T15:47:47.842Z,100478.56
2018-03-30T15:49:25.788Z,100477.70
2018-03-30T15:51:04.633Z,100490.10
2018-03-30T15:52:42.106Z,100526.34
2018-03-30T15:54:17.622Z,100494.88
2018-03-30T15:55:55.655Z,100492.70
2018-03-30T15:57:33.661Z,100483.44
2018-03-30T15:59:12.604Z,100418.80
2018-03-30T16:00:50.527Z,100421.45
2018-03-30T16:02:28.578Z,100390.11
2018-03-30T16:04:06.284Z,100391.80
2018-03-30T16:05:44.905Z,100416.55
2018-03-30T16:07:23.565Z,100459.93
2018-03-30T16:09:01.312Z,100482.92
2018-03-30T16:10:39.930Z,100460.39
2018-03-30T16:12:17.694Z,100479.44
2018-03-30T16:14:00.762Z,100469.67
2018-03-30T16:15:39.140Z,100454.64
2018-03-30T16:17:16.998Z,100455.97
2018-03-30T16:18:58.540Z,100447.09
2018-03-30T16:20:33.277Z,100447.98
2018-03-30T16:22:08.944Z,100442.23
2018-03-30T16:23:44.426Z,100412.12
2018-03-30T16:25:19.909Z,100408.12
2018-03-30T16:26:54.548Z,100421.00
2018-03-30T16:28:29.468Z,100448.87
2018-03-30T16:30:05.573Z,100430.22
2018-03-30T16:31:40.695Z,100420.06
2018-03-30T16:33:15.366Z,100448.41
2018-03-30T16:34:50.385Z,100469.58
2018-03-30T16:36:25.996Z,100459.88
2018-03-30T16:38:06.728Z,100424.48
2018-03-30T16:39:42.926Z,100381.97
2018-03-30T16:41:17.763Z,100434.65
2018-03-30T16:42:51.969Z,100461.66
2018-03-30T16:44:26.296Z,100424.48
2018-03-30T16:46:01.116Z,100411.17
2018-03-30T16:47:35.961Z,100374.45
2018-03-30T16:49:10.125Z,100345.69
2018-03-30T16:50:44.831Z,100365.64
2018-03-30T16:52:19.940Z,100349.67
2018-03-30T16:53:54.963Z,100321.87
2018-03-30T16:55:29.718Z,100274.52
2018-03-30T16:57:05.067Z,100265.25
2018-03-30T16:58:39.545Z,100257.30
2018-03-30T17:00:15.446Z,100233.45
2018-03-30T17:01:51.287Z,100254.64
2018-03-30T17:03:26.073Z,100248.44
2018-03-30T17:05:00.464Z,100262.15
2018-03-30T17:06:35.754Z,100237.86
2018-03-30T17:08:10.059Z,100267.03
2018-03-30T17:09:44.413Z,100264.81
2018-03-30T17:11:19.376Z,100286.91
2018-03-30T17:12:53.473Z,100273.20
2018-03-30T17:14:28.439Z,100274.05
2018-03-30T17:16:03.114Z,100295.25
2018-03-30T17:17:38.277Z,100316.52
2018-03-30T17:19:12.401Z,100331.98
2018-03-30T17:20:46.925Z,100317.80
2018-03-30T17:22:21.043Z,100304.55
2018-03-30T17:23:55.365Z,100287.33
2018-03-30T17:25:29.681Z,100299.66
2018-03-30T17:27:04.898Z,100270.94
2018-03-30T17:28:39.157Z,100266.51
2018-03-30T17:30:15.066Z,100232.05
2018-03-30T17:31:49.424Z,100264.30
2018-03-30T17:33:23.748Z,100283.32
2018-03-30T17:35:01.897Z,100297.47
2018-03-30T17:36:36.650Z,100287.77
2018-03-30T17:38:10.855Z,100285.98
2018-03-30T17:39:45.025Z,100268.28
2018-03-30T17:41:19.282Z,100264.27
2018-03-30T17:42:53.696Z,100259.91
2018-03-30T17:44:28.711Z,100252.82
2018-03-30T17:46:03.220Z,100255.91
2018-03-30T17:47:37.624Z,100249.68
2018-03-30T17:49:12.220Z,100290.79
2018-03-30T17:50:47.649Z,100257.63
2018-03-30T17:52:22.232Z,100241.30
2018-03-30T17:53:56.643Z,100212.56
2018-03-30T17:55:31.238Z,100245.74
2018-03-30T17:57:05.588Z,100220.97
2018-03-30T17:58:39.852Z,100216.55
2018-03-30T18:00:15.598Z,100212.17
2018-03-30T18:01:55.927Z,100197.97
2018-03-30T18:03:31.895Z,100176.80
2018-03-30T18:05:06.247Z,100154.70
2018-03-30T18:06:40.662Z,100162.27
2018-03-30T18:08:15.458Z,100161.30
2018-03-30T18:09:49.620Z,100121.16
2018-03-30T18:11:24.480Z,100069.47
2018-03-30T18:12:58.821Z,100077.90
2018-03-30T18:14:33.312Z,100069.05
2018-03-30T18:16:07.618Z,100043.89
2018-03-30T18:17:42.139Z,100029.77
2018-03-30T18:19:16.301Z,100017.81
2018-03-30T18:20:51.227Z,100014.28
2018-03-30T18:22:25.438Z,99997.52
2018-03-30T18:23:59.780Z,100050.05
2018-03-30T18:25:34.070Z,100039.88
2018-03-30T18:27:08.576Z,100016.50
2018-03-30T18:28:43.794Z,99983.41
2018-03-30T18:30:18.068Z,99945.02
2018-03-30T18:31:52.693Z,99931.83
2018-03-30T18:33:27.199Z,99938.86
2018-03-30T18:35:01.296Z,99938.86
2018-03-30T18:36:36.380Z,99932.69
2018-03-30T18:38:10.619Z,99896.54
2018-03-30T18:39:45.027Z,99877.50
2018-03-30T18:41:19.276Z,99892.10
2018-03-30T18:42:53.525Z,99926.06
2018-03-30T18:44:27.681Z,100108.70
2018-03-30T18:46:02.315Z,100207.19
2018-03-30T18:47:38.759Z,100233.22
2018-03-30T18:49:13.033Z,100281.41
2018-03-30T18:50:47.394Z,100316.32
2018-03-30T18:52:22.230Z,100320.29
2018-03-30T18:53:56.346Z,100305.70
2018-03-30T18:55:30.632Z,100380.43
2018-03-30T18:57:04.915Z,100441.05